Aguila, AZ (85320)

8:30 PM MST on October 24, 2014 (GMT -0700)
RAWS SMITH PEAK AZ US | Change Station
CLOSE
Current Station
Personal Weather Station
Location: Aguila, AZ
Elevation: 2500 ft
Nearby Weather Stations

Elev 2500 ft 34.11 °N, 113.35 °W | Updated 37 minutes ago

Clear
Clear
78 °F
Feels Like 78 °F
N
7
Wind Variable Wind from South
Gusts 10.0 mph

Today
High -- | Low -- °F
--% Chance of Precip.
Yesterday
High -- | Low -- °F
Precip. -- in
6:45 AM 5:48 PM
New Moon, 2% visible
Pressure 29.96 in
Visibility 10.0 miles
Clouds Clear
Heat Index 78 °F
Dew Point 38 °F
Humidity 24%
Rainfall 0.00 in
Snow Depth Not available.
UV 0 out of 12
Pollen 5.20 out of 12
PM2.5 Good
Flu Activity No Activity
METAR KBXK 250315Z AUTO 04006KT 10SM CLR 24/08 A2996 RMK AO1

More Conditions Fewer Conditions

Pressure 29.96 in
Visibility 10.0 miles
Clouds Clear
Heat Index 78 °F
Dew Point 38 °F
Humidity 24%
Rainfall 0.00 in
Snow Depth Not available.
UV 0 out of 12
Pollen 5.20 out of 12
PM2.5 Good
Flu Activity No Activity
METAR KBXK 250315Z AUTO 04006KT 10SM CLR 24/08 A2996 RMK AO1

More Conditions Fewer Conditions

10-Day Weather Forecast

Almanac

Astronomy

Oct. 24, 2014 Rise Set
Actual Time 6:45 AM MST 5:48 PM MST
Civil Twilight 6:19 AM MST 6:13 PM MST
Nautical Twilight 5:50 AM MST 6:42 PM MST
Astronomical Twilight 5:21 AM MST 7:11 PM MST
Moon 7:26 AM MST (10/24) 6:33 PM MST (10/24)
Length of Visible Light 11h 53m
Length of Day
11h 02m
Tomorrow will be 1m 56s shorter.
New Moon, 2% of the Moon is Illuminated
Today
New Moon
Oct 30
First Quarter
Nov 6
Full
Nov 14
Last Quarter
Nov 22
New

Today's Extremes

State Highs State Lows

Community

WunderPhotos

Upload Photos

1,764,771 photos uploaded!

Nearby

Air Quality

  Air Quality AQ Index Pollutant
Yesterday Good
PM2.5
Yesterday Good
OZONE
Current Good
PM2.5
Friday Good
OZONE
Friday Good
PM10
Friday Good
CO
Saturday Good
PM2.5
Saturday Good
OZONE
Saturday Good
CO
Sunday Good
PM2.5
Sunday Good
OZONE
Sunday Good
CO

Snow Depth

Station Depth Elevation
White Horse Lake 0 in 7180 ft
Baker Butte 0 in 7300 ft
Happy Jack 0 in 7630 ft
Mormon Mountain 0 in 7500 ft
Promontory 0 in 7930 ft

Earthquake Activity

City Distance Mag. Time & Date
No recent earthquake activity has been reported nearby.
Minimum magnitude displayed is 2.5.

Coastal Water Temperatures

Place Temperature
No Stations Reporting

Nearby Weather Stations